A12 weather

Wheeler Field
Western Australia, Australia

Public forecast

Using degrees Celsius for public forecast. Weather courtesy of forecast.io.

Closest aviation weather report (METAR) to Wheeler Field

Closest report is Perth Jandakot Airport, 41.7 nm (77.2 km) N. Retrieved 2020/02/27 16:00 UTC (16 minutes ago):

YPJT 271600Z AUTO 07017G27KT 9999 // SCT120 26/17 Q1008 RF000/0046

Closest aviation forecast (TAF) to Wheeler Field

Closest forecast is Perth Jandakot Airport, 41.7 nm (77.2 km) N. Retrieved 2020/02/27 12:00 UTC (4 hours ago):

TAF YPJT 271112Z 2712/2806 07022G32KT 9999 -SHRA SCT050 FM280200 03015G25KT 9999 -SHRA SCT030 PROB30 INTER 2712/2806 VRB25G45KT 4000 TSRA SCT015 FEW050CB